sensor_id;sensor_type;location;lat;lon;timestamp;pressure;altitude;pressure_sealevel;temperature;humidity
70304;BME280;57712;48.752;11.348;2023-02-18T00:01:25;98337.03;;;10.81;100.00
70304;BME280;57712;48.752;11.348;2023-02-18T00:03:51;98341.72;;;10.81;100.00
70304;BME280;57712;48.752;11.348;2023-02-18T00:06:27;98340.53;;;10.85;100.00
70304;BME280;57712;48.752;11.348;2023-02-18T00:08:54;98336.25;;;10.84;100.00
70304;BME280;57712;48.752;11.348;2023-02-18T00:11:22;98326.88;;;10.78;100.00
70304;BME280;57712;48.752;11.348;2023-02-18T00:13:54;98342.50;;;10.85;100.00
70304;BME280;57712;48.752;11.348;2023-02-18T00:16:22;98341.72;;;10.81;100.00
70304;BME280;57712;48.752;11.348;2023-02-18T00:18:50;98340.97;;;10.77;100.00
70304;BME280;57712;48.752;11.348;2023-02-18T00:21:19;98337.81;;;10.78;100.00
70304;BME280;57712;48.752;11.348;2023-02-18T00:23:46;98339.41;;;10.72;100.00
70304;BME280;57712;48.752;11.348;2023-02-18T00:26:14;98330.78;;;10.77;100.00
70304;BME280;57712;48.752;11.348;2023-02-18T00:28:42;98331.59;;;10.74;100.00
70304;BME280;57712;48.752;11.348;2023-02-18T00:31:12;98333.94;;;10.72;100.00
70304;BME280;57712;48.752;11.348;2023-02-18T00:33:40;98328.44;;;10.72;100.00
70304;BME280;57712;48.752;11.348;2023-02-18T00:36:10;98330.00;;;10.73;100.00
70304;BME280;57712;48.752;11.348;2023-02-18T00:38:38;98322.97;;;10.72;100.00
70304;BME280;57712;48.752;11.348;2023-02-18T00:41:04;98311.59;;;10.77;100.00
70304;BME280;57712;48.752;11.348;2023-02-18T00:43:31;98308.09;;;10.77;100.00
70304;BME280;57712;48.752;11.348;2023-02-18T00:45:58;98305.75;;;10.72;100.00
70304;BME280;57712;48.752;11.348;2023-02-18T00:48:27;98304.97;;;10.71;100.00
70304;BME280;57712;48.752;11.348;2023-02-18T00:50:53;98300.25;;;10.79;100.00
70304;BME280;57712;48.752;11.348;2023-02-18T00:53:20;98309.66;;;10.70;100.00
70304;BME280;57712;48.752;11.348;2023-02-18T00:55:48;98304.97;;;10.71;100.00
70304;BME280;57712;48.752;11.348;2023-02-18T00:58:15;98309.28;;;10.72;100.00
70304;BME280;57712;48.752;11.348;2023-02-18T01:00:42;98312.78;;;10.73;100.00
70304;BME280;57712;48.752;11.348;2023-02-18T01:03:09;98306.53;;;10.76;100.00
70304;BME280;57712;48.752;11.348;2023-02-18T01:05:37;98305.38;;;10.69;100.00
70304;BME280;57712;48.752;11.348;2023-02-18T01:08:04;98317.50;;;10.72;100.00
70304;BME280;57712;48.752;11.348;2023-02-18T01:10:32;98312.81;;;10.69;100.00
70304;BME280;57712;48.752;11.348;2023-02-18T01:12:59;98312.78;;;10.73;100.00
70304;BME280;57712;48.752;11.348;2023-02-18T01:15:26;98303.41;;;10.70;100.00
70304;BME280;57712;48.752;11.348;2023-02-18T01:17:53;98297.91;;;10.77;100.00
70304;BME280;57712;48.752;11.348;2023-02-18T01:20:19;98310.44;;;10.71;100.00
70304;BME280;57712;48.752;11.348;2023-02-18T01:22:46;98306.53;;;10.72;100.00
70304;BME280;57712;48.752;11.348;2023-02-18T01:25:13;98292.03;;;10.75;100.00
70304;BME280;57712;48.752;11.348;2023-02-18T01:27:40;98303.78;;;10.72;100.00
70304;BME280;57712;48.752;11.348;2023-02-18T01:30:09;98288.13;;;10.76;100.00
70304;BME280;57712;48.752;11.348;2023-02-18T01:32:36;98291.25;;;10.78;100.00
70304;BME280;57712;48.752;11.348;2023-02-18T01:35:04;98281.44;;;10.81;100.00
70304;BME280;57712;48.752;11.348;2023-02-18T01:37:31;98293.16;;;10.81;100.00
70304;BME280;57712;48.752;11.348;2023-02-18T01:39:58;98281.47;;;10.77;100.00
70304;BME280;57712;48.752;11.348;2023-02-18T01:42:27;98273.56;;;10.83;100.00
70304;BME280;57712;48.752;11.348;2023-02-18T01:48:19;98280.66;;;10.84;100.00
70304;BME280;57712;48.752;11.348;2023-02-18T01:50:53;98270.41;;;10.91;100.00
70304;BME280;57712;48.752;11.348;2023-02-18T01:53:35;98268.84;;;10.90;100.00
70304;BME280;57712;48.752;11.348;2023-02-18T01:56:05;98273.50;;;10.93;100.00
70304;BME280;57712;48.752;11.348;2023-02-18T01:58:35;98264.13;;;10.94;100.00
70304;BME280;57712;48.752;11.348;2023-02-18T02:01:02;98269.63;;;10.91;100.00
70304;BME280;57712;48.752;11.348;2023-02-18T02:03:29;98275.47;;;10.96;100.00
70304;BME280;57712;48.752;11.348;2023-02-18T02:05:55;98268.78;;;10.97;100.00
70304;BME280;57712;48.752;11.348;2023-02-18T02:08:22;98261.75;;;10.93;100.00
70304;BME280;57712;48.752;11.348;2023-02-18T02:11:10;98272.72;;;10.96;100.00
70304;BME280;57712;48.752;11.348;2023-02-18T02:14:00;98255.47;;;10.99;100.00
70304;BME280;57712;48.752;11.348;2023-02-18T02:16:59;98257.84;;;10.97;100.00
70304;BME280;57712;48.752;11.348;2023-02-18T02:25:38;98251.53;;;11.01;100.00
70304;BME280;57712;48.752;11.348;2023-02-18T02:31:11;98247.63;;;11.02;100.00
70304;BME280;57712;48.752;11.348;2023-02-18T02:33:50;98250.72;;;11.04;100.00
70304;BME280;57712;48.752;11.348;2023-02-18T02:39:25;98242.19;;;10.94;100.00
70304;BME280;57712;48.752;11.348;2023-02-18T02:42:12;98239.00;;;10.99;100.00
70304;BME280;57712;48.752;11.348;2023-02-18T02:47:35;98247.69;;;10.94;100.00
70304;BME280;57712;48.752;11.348;2023-02-18T02:50:13;98237.09;;;10.96;100.00
70304;BME280;57712;48.752;11.348;2023-02-18T02:52:56;98244.50;;;10.99;100.00
70304;BME280;57712;48.752;11.348;2023-02-18T02:55:24;98223.00;;;10.94;100.00
70304;BME280;57712;48.752;11.348;2023-02-18T02:57:53;98228.06;;;10.99;100.00
70304;BME280;57712;48.752;11.348;2023-02-18T03:00:26;98228.88;;;10.96;100.00
70304;BME280;57712;48.752;11.348;2023-02-18T03:05:59;98227.31;;;10.95;100.00
70304;BME280;57712;48.752;11.348;2023-02-18T03:08:43;98213.97;;;10.97;100.00
70304;BME280;57712;48.752;11.348;2023-02-18T03:11:14;98212.03;;;10.94;100.00
70304;BME280;57712;48.752;11.348;2023-02-18T03:13:56;98229.28;;;10.91;100.00
70304;BME280;57712;48.752;11.348;2023-02-18T03:19:23;98213.19;;;10.93;100.00
70304;BME280;57712;48.752;11.348;2023-02-18T03:22:05;98217.53;;;10.94;100.00
70304;BME280;57712;48.752;11.348;2023-02-18T03:24:37;98216.34;;;10.95;100.00
70304;BME280;57712;48.752;11.348;2023-02-18T03:27:18;98203.06;;;10.90;100.00
70304;BME280;57712;48.752;11.348;2023-02-18T03:29:52;98213.19;;;10.93;100.00
70304;BME280;57712;48.752;11.348;2023-02-18T03:32:22;98212.41;;;10.96;100.00
70304;BME280;57712;48.752;11.348;2023-02-18T03:34:55;98217.13;;;10.92;100.00
70304;BME280;57712;48.752;11.348;2023-02-18T03:37:23;98214.38;;;10.92;100.00
70304;BME280;57712;48.752;11.348;2023-02-18T03:39:54;98222.66;;;10.89;100.00
70304;BME280;57712;48.752;11.348;2023-02-18T03:42:26;98218.69;;;10.93;100.00
70304;BME280;57712;48.752;11.348;2023-02-18T03:44:54;98221.44;;;10.93;100.00
70304;BME280;57712;48.752;11.348;2023-02-18T03:47:24;98218.31;;;10.91;100.00
70304;BME280;57712;48.752;11.348;2023-02-18T03:49:50;98214.38;;;10.92;100.00
70304;BME280;57712;48.752;11.348;2023-02-18T03:52:17;98210.09;;;10.91;100.00
70304;BME280;57712;48.752;11.348;2023-02-18T03:54:43;98212.47;;;10.89;100.00
70304;BME280;57712;48.752;11.348;2023-02-18T03:57:10;98205.44;;;10.88;100.00
70304;BME280;57712;48.752;11.348;2023-02-18T03:59:36;98201.47;;;10.93;100.00
70304;BME280;57712;48.752;11.348;2023-02-18T04:02:03;98200.69;;;10.92;100.00
70304;BME280;57712;48.752;11.348;2023-02-18T04:04:30;98199.56;;;10.86;100.00
70304;BME280;57712;48.752;11.348;2023-02-18T04:06:57;98209.38;;;10.84;100.00
70304;BME280;57712;48.752;11.348;2023-02-18T04:09:23;98200.75;;;10.85;100.00
70304;BME280;57712;48.752;11.348;2023-02-18T04:11:50;98207.75;;;10.90;100.00
70304;BME280;57712;48.752;11.348;2023-02-18T04:14:17;98221.47;;;10.90;100.00
70304;BME280;57712;48.752;11.348;2023-02-18T04:16:43;98228.91;;;10.89;100.00
70304;BME280;57712;48.752;11.348;2023-02-18T04:19:10;98227.31;;;10.92;100.00
70304;BME280;57712;48.752;11.348;2023-02-18T04:21:36;98227.31;;;10.92;100.00
70304;BME280;57712;48.752;11.348;2023-02-18T04:24:03;98222.63;;;10.92;100.00
70304;BME280;57712;48.752;11.348;2023-02-18T04:26:32;98237.50;;;10.95;100.00
70304;BME280;57712;48.752;11.348;2023-02-18T04:28:59;98228.88;;;10.93;100.00
70304;BME280;57712;48.752;11.348;2023-02-18T04:31:26;98229.66;;;10.93;100.00
70304;BME280;57712;48.752;11.348;2023-02-18T04:33:52;98238.69;;;10.90;100.00
70304;BME280;57712;48.752;11.348;2023-02-18T04:36:19;98221.88;;;10.88;100.00
70304;BME280;57712;48.752;11.348;2023-02-18T04:38:45;98225.75;;;10.91;100.00
70304;BME280;57712;48.752;11.348;2023-02-18T04:41:12;98227.34;;;10.88;100.00
70304;BME280;57712;48.752;11.348;2023-02-18T04:43:39;98226.97;;;10.86;100.00
70304;BME280;57712;48.752;11.348;2023-02-18T04:46:05;98224.16;;;10.93;100.00
70304;BME280;57712;48.752;11.348;2023-02-18T04:48:33;98222.22;;;10.94;100.00
70304;BME280;57712;48.752;11.348;2023-02-18T04:51:00;98222.69;;;10.85;100.00
70304;BME280;57712;48.752;11.348;2023-02-18T04:53:27;98221.50;;;10.86;100.00
70304;BME280;57712;48.752;11.348;2023-02-18T04:55:53;98221.13;;;10.84;100.00
70304;BME280;57712;48.752;11.348;2023-02-18T04:58:21;98220.34;;;10.80;100.00
70304;BME280;57712;48.752;11.348;2023-02-18T05:00:48;98219.16;;;10.81;100.00
70304;BME280;57712;48.752;11.348;2023-02-18T05:03:14;98211.72;;;10.82;100.00
70304;BME280;57712;48.752;11.348;2023-02-18T05:05:41;98205.47;;;10.81;100.00
70304;BME280;57712;48.752;11.348;2023-02-18T05:08:08;98204.72;;;10.77;100.00
70304;BME280;57712;48.752;11.348;2023-02-18T05:10:36;98202.75;;;10.78;100.00
70304;BME280;57712;48.752;11.348;2023-02-18T05:13:03;98190.22;;;10.80;100.00
70304;BME280;57712;48.752;11.348;2023-02-18T05:15:30;98181.66;;;10.75;100.00
70304;BME280;57712;48.752;11.348;2023-02-18T05:17:56;98192.16;;;10.80;100.00
70304;BME280;57712;48.752;11.348;2023-02-18T05:20:23;98196.06;;;10.82;100.00
70304;BME280;57712;48.752;11.348;2023-02-18T05:22:49;98182.00;;;10.80;100.00
70304;BME280;57712;48.752;11.348;2023-02-18T05:25:16;98186.66;;;10.83;100.00
70304;BME280;57712;48.752;11.348;2023-02-18T05:27:42;98190.16;;;10.87;100.00
70304;BME280;57712;48.752;11.348;2023-02-18T05:30:09;98192.94;;;10.84;100.00
70304;BME280;57712;48.752;11.348;2023-02-18T05:32:36;98192.53;;;10.85;100.00
70304;BME280;57712;48.752;11.348;2023-02-18T05:35:02;98206.16;;;10.92;100.00
70304;BME280;57712;48.752;11.348;2023-02-18T05:37:29;98201.53;;;10.86;100.00
70304;BME280;57712;48.752;11.348;2023-02-18T05:39:56;98208.94;;;10.89;100.00
70304;BME280;57712;48.752;11.348;2023-02-18T05:42:22;98206.19;;;10.89;100.00
70304;BME280;57712;48.752;11.348;2023-02-18T05:44:48;98212.47;;;10.89;100.00
70304;BME280;57712;48.752;11.348;2023-02-18T05:47:15;98215.56;;;10.91;100.00
70304;BME280;57712;48.752;11.348;2023-02-18T05:49:43;98217.94;;;10.89;100.00
70304;BME280;57712;48.752;11.348;2023-02-18T05:52:10;98240.25;;;10.91;100.00
70304;BME280;57712;48.752;11.348;2023-02-18T05:54:37;98222.63;;;10.92;100.00
70304;BME280;57712;48.752;11.348;2023-02-18T05:57:03;98219.09;;;10.92;100.00
70304;BME280;57712;48.752;11.348;2023-02-18T05:59:30;98220.28;;;10.91;100.00
70304;BME280;57712;48.752;11.348;2023-02-18T06:01:56;98221.06;;;10.91;100.00
70304;BME280;57712;48.752;11.348;2023-02-18T06:04:23;98222.25;;;10.90;100.00
70304;BME280;57712;48.752;11.348;2023-02-18T06:06:50;98217.16;;;10.89;100.00
70304;BME280;57712;48.752;11.348;2023-02-18T06:09:17;98218.72;;;10.90;100.00
70304;BME280;57712;48.752;11.348;2023-02-18T06:11:43;98217.19;;;10.85;100.00
70304;BME280;57712;48.752;11.348;2023-02-18T06:14:10;98209.34;;;10.87;100.00
70304;BME280;57712;48.752;11.348;2023-02-18T06:16:37;98221.13;;;10.81;100.00
70304;BME280;57712;48.752;11.348;2023-02-18T06:19:03;98215.25;;;10.82;100.00
70304;BME280;57712;48.752;11.348;2023-02-18T06:21:31;98220.34;;;10.80;100.00
70304;BME280;57712;48.752;11.348;2023-02-18T06:23:57;98201.53;;;10.82;100.00
70304;BME280;57712;48.752;11.348;2023-02-18T06:26:24;98206.66;;;10.80;100.00
70304;BME280;57712;48.752;11.348;2023-02-18T06:28:51;98198.44;;;10.80;100.00
70304;BME280;57712;48.752;11.348;2023-02-18T06:31:17;98201.53;;;10.82;100.00
70304;BME280;57712;48.752;11.348;2023-02-18T06:33:44;98198.44;;;10.80;100.00
70304;BME280;57712;48.752;11.348;2023-02-18T06:36:12;98200.00;;;10.81;100.00
70304;BME280;57712;48.752;11.348;2023-02-18T06:38:41;98205.47;;;10.85;100.00
70304;BME280;57712;48.752;11.348;2023-02-18T06:41:08;98196.06;;;10.82;100.00
70304;BME280;57712;48.752;11.348;2023-02-18T06:43:35;98194.09;;;10.83;100.00
70304;BME280;57712;48.752;11.348;2023-02-18T06:46:02;98197.63;;;10.83;100.00
70304;BME280;57712;48.752;11.348;2023-02-18T06:48:29;98202.31;;;10.86;100.00
70304;BME280;57712;48.752;11.348;2023-02-18T06:50:56;98200.34;;;10.83;100.00
70304;BME280;57712;48.752;11.348;2023-02-18T06:53:23;98202.69;;;10.88;100.00
70304;BME280;57712;48.752;11.348;2023-02-18T06:55:50;98203.06;;;10.90;100.00
70304;BME280;57712;48.752;11.348;2023-02-18T06:58:16;98213.28;;;10.86;100.00
70304;BME280;57712;48.752;11.348;2023-02-18T07:00:43;98215.59;;;10.88;100.00
70304;BME280;57712;48.752;11.348;2023-02-18T07:03:12;98211.69;;;10.89;100.00
70304;BME280;57712;48.752;11.348;2023-02-18T07:05:40;98221.81;;;10.95;100.00
70304;BME280;57712;48.752;11.348;2023-02-18T07:08:07;98211.66;;;10.92;100.00
70304;BME280;57712;48.752;11.348;2023-02-18T07:10:33;98200.63;;;10.99;100.00
70304;BME280;57712;48.752;11.348;2023-02-18T07:13:00;98204.19;;;10.96;100.00
70304;BME280;57712;48.752;11.348;2023-02-18T07:15:26;98213.97;;;10.97;100.00
70304;BME280;57712;48.752;11.348;2023-02-18T07:17:53;98196.66;;;11.08;100.00
70304;BME280;57712;48.752;11.348;2023-02-18T07:20:20;98202.97;;;11.01;100.00
70304;BME280;57712;48.752;11.348;2023-02-18T07:22:47;98205.63;;;11.12;100.00
70304;BME280;57712;48.752;11.348;2023-02-18T07:25:14;98191.09;;;11.15;100.00
70304;BME280;57712;48.752;11.348;2023-02-18T07:27:41;98199.41;;;11.04;100.00
70304;BME280;57712;48.752;11.348;2023-02-18T07:30:08;98192.78;;;11.05;100.00
70304;BME280;57712;48.752;11.348;2023-02-18T07:32:35;98191.13;;;11.11;100.00
70304;BME280;57712;48.752;11.348;2023-02-18T07:35:02;98195.09;;;11.07;100.00
70304;BME280;57712;48.752;11.348;2023-02-18T07:37:29;98185.59;;;11.15;100.00
70304;BME280;57712;48.752;11.348;2023-02-18T07:39:55;98186.84;;;11.10;100.00
70304;BME280;57712;48.752;11.348;2023-02-18T07:42:22;98197.41;;;11.12;100.00
70304;BME280;57712;48.752;11.348;2023-02-18T07:44:48;98198.91;;;11.20;100.00
70304;BME280;57712;48.752;11.348;2023-02-18T07:47:16;98180.88;;;11.19;100.00
70304;BME280;57712;48.752;11.348;2023-02-18T07:49:46;98187.63;;;11.11;100.00
70304;BME280;57712;48.752;11.348;2023-02-18T07:52:14;98182.47;;;11.16;100.00
70304;BME280;57712;48.752;11.348;2023-02-18T07:54:41;98191.91;;;11.15;100.00
70304;BME280;57712;48.752;11.348;2023-02-18T07:57:07;98185.56;;;11.22;100.00
70304;BME280;57712;48.752;11.348;2023-02-18T07:59:34;98179.59;;;11.31;100.00
70304;BME280;57712;48.752;11.348;2023-02-18T08:02:01;98189.84;;;11.23;100.00
70304;BME280;57712;48.752;11.348;2023-02-18T08:04:28;98180.75;;;11.33;100.00
70304;BME280;57712;48.752;11.348;2023-02-18T08:06:55;98187.88;;;11.23;100.00
70304;BME280;57712;48.752;11.348;2023-02-18T08:09:22;98182.28;;;11.34;100.00
70304;BME280;57712;48.752;11.348;2023-02-18T08:11:48;98171.22;;;11.45;100.00
70304;BME280;57712;48.752;11.348;2023-02-18T08:14:15;98160.25;;;11.45;100.00
70304;BME280;57712;48.752;11.348;2023-02-18T08:16:41;98173.53;;;11.50;100.00
70304;BME280;57712;48.752;11.348;2023-02-18T08:19:08;98191.88;;;11.56;100.00
70304;BME280;57712;48.752;11.348;2023-02-18T08:21:35;98186.09;;;11.47;100.00
70304;BME280;57712;48.752;11.348;2023-02-18T08:24:04;98190.03;;;11.46;100.00
70304;BME280;57712;48.752;11.348;2023-02-18T08:26:33;98173.47;;;11.57;100.00
70304;BME280;57712;48.752;11.348;2023-02-18T08:29:00;98171.84;;;11.60;100.00
70304;BME280;57712;48.752;11.348;2023-02-18T08:31:28;98168.75;;;11.57;100.00
70304;BME280;57712;48.752;11.348;2023-02-18T08:33:56;98159.31;;;11.59;100.00
70304;BME280;57712;48.752;11.348;2023-02-18T08:36:24;98156.13;;;11.64;100.00
70304;BME280;57712;48.752;11.348;2023-02-18T08:38:51;98159.16;;;11.73;100.00
70304;BME280;57712;48.752;11.348;2023-02-18T08:41:18;98156.47;;;11.66;100.00
70304;BME280;57712;48.752;11.348;2023-02-18T08:43:45;98134.59;;;11.62;100.00
70304;BME280;57712;48.752;11.348;2023-02-18T08:46:13;98147.75;;;11.78;100.00
70304;BME280;57712;48.752;11.348;2023-02-18T08:48:42;98138.31;;;11.79;100.00
70304;BME280;57712;48.752;11.348;2023-02-18T08:51:18;98146.16;;;11.77;100.00
70304;BME280;57712;48.752;11.348;2023-02-18T08:53:45;98137.16;;;11.80;100.00
70304;BME280;57712;48.752;11.348;2023-02-18T08:56:13;98123.94;;;11.98;100.00
70304;BME280;57712;48.752;11.348;2023-02-18T08:58:41;98134.28;;;12.18;100.00
70304;BME280;57712;48.752;11.348;2023-02-18T09:01:11;98132.09;;;12.05;100.00
70304;BME280;57712;48.752;11.348;2023-02-18T09:03:38;98135.19;;;12.11;100.00
70304;BME280;57712;48.752;11.348;2023-02-18T09:06:06;98128.44;;;12.16;100.00
70304;BME280;57712;48.752;11.348;2023-02-18T09:08:33;98130.03;;;12.13;100.00
70304;BME280;57712;48.752;11.348;2023-02-18T09:11:01;98122.66;;;12.10;100.00
70304;BME280;57712;48.752;11.348;2023-02-18T09:13:30;98136.72;;;12.12;100.00
70304;BME280;57712;48.752;11.348;2023-02-18T09:16:04;98112.22;;;12.25;100.00
70304;BME280;57712;48.752;11.348;2023-02-18T09:18:33;98105.84;;;12.31;100.00
70304;BME280;57712;48.752;11.348;2023-02-18T09:21:01;98123.81;;;12.36;100.00
70304;BME280;57712;48.752;11.348;2023-02-18T09:23:30;98111.59;;;12.40;100.00
70304;BME280;57712;48.752;11.348;2023-02-18T09:25:57;98101.16;;;12.28;100.00
70304;BME280;57712;48.752;11.348;2023-02-18T09:28:24;98115.22;;;12.34;100.00
70304;BME280;57712;48.752;11.348;2023-02-18T09:30:51;98112.22;;;12.25;100.00
70304;BME280;57712;48.752;11.348;2023-02-18T09:33:18;98081.69;;;12.46;100.00
70304;BME280;57712;48.752;11.348;2023-02-18T09:35:45;98101.94;;;12.29;100.00
70304;BME280;57712;48.752;11.348;2023-02-18T09:38:14;98098.97;;;12.20;100.00
70304;BME280;57712;48.752;11.348;2023-02-18T09:40:48;98097.56;;;12.35;100.00
70304;BME280;57712;48.752;11.348;2023-02-18T09:43:22;98102.16;;;12.14;100.00
70304;BME280;57712;48.752;11.348;2023-02-18T09:45:53;98099.31;;;12.22;100.00
70304;BME280;57712;48.752;11.348;2023-02-18T09:48:26;98082.19;;;12.37;100.00
70304;BME280;57712;48.752;11.348;2023-02-18T09:50:53;98086.88;;;12.40;100.00
70304;BME280;57712;48.752;11.348;2023-02-18T09:53:22;98070.22;;;12.51;100.00
70304;BME280;57712;48.752;11.348;2023-02-18T09:55:51;98066.97;;;12.56;100.00
70304;BME280;57712;48.752;11.348;2023-02-18T09:58:22;98071.34;;;12.77;100.00
70304;BME280;57712;48.752;11.348;2023-02-18T10:00:51;98071.78;;;12.52;100.00
70304;BME280;57712;48.752;11.348;2023-02-18T10:03:21;98067.34;;;12.58;100.00
70304;BME280;57712;48.752;11.348;2023-02-18T10:08:25;98070.22;;;12.51;100.00
70304;BME280;57712;48.752;11.348;2023-02-18T10:10:53;98068.03;;;12.39;100.00
70304;BME280;57712;48.752;11.348;2023-02-18T10:13:23;98060.81;;;12.49;100.00
70304;BME280;57712;48.752;11.348;2023-02-18T10:15:51;98060.88;;;12.45;100.00
70304;BME280;57712;48.752;11.348;2023-02-18T10:20:51;98048.78;;;12.42;100.00
70304;BME280;57712;48.752;11.348;2023-02-18T10:23:19;98047.03;;;12.52;100.00
70304;BME280;57712;48.752;11.348;2023-02-18T10:25:47;98050.03;;;12.61;100.00
70304;BME280;57712;48.752;11.348;2023-02-18T10:28:23;98046.97;;;12.56;100.00
70304;BME280;57712;48.752;11.348;2023-02-18T10:31:09;98044.22;;;12.56;100.00
70304;BME280;57712;48.752;11.348;2023-02-18T10:33:51;98050.44;;;12.60;100.00
70304;BME280;57712;48.752;11.348;2023-02-18T10:42:02;98059.69;;;12.69;100.00
70304;BME280;57712;48.752;11.348;2023-02-18T10:47:05;98056.31;;;12.82;100.00
70304;BME280;57712;48.752;11.348;2023-02-18T10:49:58;98053.88;;;12.87;100.00
70304;BME280;57712;48.752;11.348;2023-02-18T10:52:29;98058.97;;;12.89;100.00
70304;BME280;57712;48.752;11.348;2023-02-18T10:55:04;98059.56;;;12.77;100.00
70304;BME280;57712;48.752;11.348;2023-02-18T10:57:32;98061.34;;;12.87;100.00
70304;BME280;57712;48.752;11.348;2023-02-18T11:00:14;98054.53;;;12.95;100.00
70304;BME280;57712;48.752;11.348;2023-02-18T11:02:42;98049.28;;;12.81;100.00
70304;BME280;57712;48.752;11.348;2023-02-18T11:05:26;98050.81;;;12.82;100.00
70304;BME280;57712;48.752;11.348;2023-02-18T11:07:55;98047.72;;;12.80;100.00
70304;BME280;57712;48.752;11.348;2023-02-18T11:10:28;98043.00;;;12.80;100.00
70304;BME280;57712;48.752;11.348;2023-02-18T11:13:00;98040.38;;;12.96;100.00
70304;BME280;57712;48.752;11.348;2023-02-18T11:15:28;98021.25;;;13.09;100.00
70304;BME280;57712;48.752;11.348;2023-02-18T11:17:57;98012.69;;;13.27;100.00
70304;BME280;57712;48.752;11.348;2023-02-18T11:20:37;98014.50;;;13.34;100.00
70304;BME280;57712;48.752;11.348;2023-02-18T11:25:33;98008.31;;;13.29;100.00
70304;BME280;57712;48.752;11.348;2023-02-18T11:28:06;98016.22;;;13.27;100.00
70304;BME280;57712;48.752;11.348;2023-02-18T11:30:56;98007.06;;;13.11;100.00
70304;BME280;57712;48.752;11.348;2023-02-18T11:33:36;97991.81;;;13.29;100.00
70304;BME280;57712;48.752;11.348;2023-02-18T11:38:53;97979.31;;;13.05;100.00
70304;BME280;57712;48.752;11.348;2023-02-18T11:41:37;97969.72;;;13.13;100.00
70304;BME280;57712;48.752;11.348;2023-02-18T11:44:16;97955.25;;;13.09;100.00
70304;BME280;57712;48.752;11.348;2023-02-18T11:49:23;97967.19;;;13.22;100.00
70304;BME280;57712;48.752;11.348;2023-02-18T11:51:50;97974.84;;;13.11;100.00
70304;BME280;57712;48.752;11.348;2023-02-18T11:54:26;97965.47;;;13.09;100.00
70304;BME280;57712;48.752;11.348;2023-02-18T11:57:04;97955.53;;;13.15;100.00
70304;BME280;57712;48.752;11.348;2023-02-18T11:59:33;97962.03;;;13.05;100.00
70304;BME280;57712;48.752;11.348;2023-02-18T12:04:40;97958.94;;;13.22;100.00
70304;BME280;57712;48.752;11.348;2023-02-18T12:07:18;97936.91;;;13.22;100.00
70304;BME280;57712;48.752;11.348;2023-02-18T12:09:55;97957.03;;;13.19;100.00
70304;BME280;57712;48.752;11.348;2023-02-18T12:12:30;97957.09;;;13.36;100.00
70304;BME280;57712;48.752;11.348;2023-02-18T12:14:58;97956.16;;;13.22;100.00
70304;BME280;57712;48.752;11.348;2023-02-18T12:17:45;97945.06;;;13.46;100.00
70304;BME280;57712;48.752;11.348;2023-02-18T12:25:56;97945.06;;;13.46;100.00
70304;BME280;57712;48.752;11.348;2023-02-18T12:28:42;97933.84;;;13.56;100.00
70304;BME280;57712;48.752;11.348;2023-02-18T12:31:23;97920.41;;;13.75;100.00
70304;BME280;57712;48.752;11.348;2023-02-18T12:47:58;97905.78;;;13.94;100.00
70304;BME280;57712;48.752;11.348;2023-02-18T12:56:10;97908.63;;;13.91;100.00
70304;BME280;57712;48.752;11.348;2023-02-18T13:12:20;97907.41;;;13.75;100.00
70304;BME280;57712;48.752;11.348;2023-02-18T13:14:55;97891.69;;;13.76;100.00
70304;BME280;57712;48.752;11.348;2023-02-18T13:17:29;97889.53;;;13.83;100.00
70304;BME280;57712;48.752;11.348;2023-02-18T13:20:22;97893.16;;;13.80;100.00
70304;BME280;57712;48.752;11.348;2023-02-18T13:22:51;97891.59;;;13.79;100.00
70304;BME280;57712;48.752;11.348;2023-02-18T13:25:18;97878.44;;;13.71;100.00
70304;BME280;57712;48.752;11.348;2023-02-18T13:27:54;97890.22;;;13.71;100.00
70304;BME280;57712;48.752;11.348;2023-02-18T13:30:36;97889.34;;;13.74;100.00
70304;BME280;57712;48.752;11.348;2023-02-18T13:33:17;97872.81;;;13.74;100.00
70304;BME280;57712;48.752;11.348;2023-02-18T13:35:57;97905.19;;;13.70;100.00
70304;BME280;57712;48.752;11.348;2023-02-18T13:38:49;97885.38;;;13.75;100.00
70304;BME280;57712;48.752;11.348;2023-02-18T13:41:18;97884.03;;;13.67;100.00
70304;BME280;57712;48.752;11.348;2023-02-18T13:43:45;97892.63;;;13.69;100.00
70304;BME280;57712;48.752;11.348;2023-02-18T13:46:23;97870.75;;;13.62;100.00
70304;BME280;57712;48.752;11.348;2023-02-18T13:51:38;97867.75;;;13.56;100.00
70304;BME280;57712;48.752;11.348;2023-02-18T13:54:17;97858.38;;;13.54;100.00
70304;BME280;57712;48.752;11.348;2023-02-18T13:56:50;97866.28;;;13.52;100.00
70304;BME280;57712;48.752;11.348;2023-02-18T14:01:51;97871.28;;;13.57;100.00
70304;BME280;57712;48.752;11.348;2023-02-18T14:07:25;97874.56;;;13.68;100.00
70304;BME280;57712;48.752;11.348;2023-02-18T14:09:55;97887.31;;;13.78;100.00
70304;BME280;57712;48.752;11.348;2023-02-18T14:25:54;97876.09;;;13.69;100.00
70304;BME280;57712;48.752;11.348;2023-02-18T14:31:20;97850.28;;;13.63;100.00
70304;BME280;57712;48.752;11.348;2023-02-18T14:44:39;97855.13;;;13.59;100.00
70304;BME280;57712;48.752;11.348;2023-02-18T14:47:38;97845.81;;;13.69;100.00
70304;BME280;57712;48.752;11.348;2023-02-18T14:50:12;97854.94;;;13.66;100.00
70304;BME280;57712;48.752;11.348;2023-02-18T14:52:53;97857.34;;;13.80;100.00
70304;BME280;57712;48.752;11.348;2023-02-18T14:55:26;97852.00;;;13.73;100.00
70304;BME280;57712;48.752;11.348;2023-02-18T14:58:00;97844.44;;;13.77;100.00